createdAt,value
2017-04-08T00:00:55.211Z,20.5
2017-04-08T00:02:05.522Z,20.46
2017-04-08T00:03:15.737Z,20.53
2017-04-08T00:04:26.010Z,20.49
2017-04-08T00:05:36.277Z,20.52
2017-04-08T00:06:46.252Z,20.42
2017-04-08T00:07:56.516Z,20.52
2017-04-08T00:09:07.039Z,20.5
2017-04-08T00:10:16.996Z,20.52
2017-04-08T00:11:27.277Z,20.49
2017-04-08T00:12:37.554Z,20.49
2017-04-08T00:13:47.833Z,20.5
2017-04-08T00:14:58.046Z,20.53
2017-04-08T00:16:08.321Z,20.53
2017-04-08T00:17:18.606Z,20.53
2017-04-08T00:18:28.874Z,20.44
2017-04-08T00:19:38.844Z,20.5
2017-04-08T00:20:49.415Z,20.55
2017-04-08T00:21:59.705Z,20.46
2017-04-08T00:23:09.977Z,20.5
2017-04-08T00:24:19.317Z,20.55
2017-04-08T00:25:29.588Z,20.48
2017-04-08T00:26:39.864Z,20.46
2017-04-08T00:27:50.190Z,20.49
2017-04-08T00:29:00.151Z,20.52
2017-04-08T00:30:10.438Z,20.46
2017-04-08T00:31:20.721Z,20.53
2017-04-08T00:32:31.298Z,20.52
2017-04-08T00:33:41.606Z,20.5
2017-04-08T00:34:51.330Z,20.52
2017-04-08T00:36:01.607Z,20.55
2017-04-08T00:37:11.884Z,20.53
2017-04-08T00:38:21.840Z,20.37
2017-04-08T00:39:32.117Z,20.5
2017-04-08T00:40:42.083Z,20.48
2017-04-08T00:41:52.361Z,20.5
2017-04-08T00:43:02.330Z,20.49
2017-04-08T00:44:12.540Z,20.5
2017-04-08T00:45:22.521Z,20.44
2017-04-08T00:46:32.533Z,20.49
2017-04-08T00:47:42.816Z,20.44
2017-04-08T00:48:53.089Z,20.53
2017-04-08T00:50:03.618Z,20.53
2017-04-08T00:51:13.890Z,20.48
2017-04-08T00:52:23.846Z,20.53
2017-04-08T00:53:34.125Z,20.42
2017-04-08T00:54:44.398Z,20.4
2017-04-08T00:55:54.971Z,20.44
2017-04-08T00:57:05.239Z,20.39
2017-04-08T00:58:15.507Z,20.48
2017-04-08T00:59:25.782Z,20.46
2017-04-08T01:00:36.070Z,20.55
2017-04-08T01:01:46.285Z,20.53
2017-04-08T01:02:56.570Z,20.37
2017-04-08T01:04:06.840Z,20.42
2017-04-08T01:05:17.130Z,20.44
2017-04-08T01:06:27.141Z,20.52
2017-04-08T01:07:37.398Z,20.48
2017-04-08T01:08:47.678Z,20.42
2017-04-08T01:09:57.943Z,20.46
2017-04-08T01:11:08.229Z,20.44
2017-04-08T01:12:18.187Z,20.37
2017-04-08T01:13:28.716Z,20.4
2017-04-08T01:14:38.988Z,20.46
2017-04-08T01:15:49.258Z,20.37
2017-04-08T01:16:59.526Z,20.44
2017-04-08T01:18:09.803Z,20.44
2017-04-08T01:19:20.341Z,20.44
2017-04-08T01:20:30.315Z,20.3
2017-04-08T01:21:40.582Z,20.39
2017-04-08T01:22:50.853Z,20.4
2017-04-08T01:24:00.819Z,20.46
2017-04-08T01:25:11.351Z,20.46
2017-04-08T01:26:21.312Z,20.46
2017-04-08T01:27:31.270Z,20.46
2017-04-08T01:28:41.536Z,20.37
2017-04-08T01:29:51.816Z,20.32
2017-04-08T01:31:02.389Z,20.42
2017-04-08T01:32:12.346Z,20.48
2017-04-08T01:33:22.617Z,20.4
2017-04-08T01:34:32.897Z,20.44
2017-04-08T01:35:43.172Z,20.32
2017-04-08T01:36:53.696Z,20.32
2017-04-08T01:38:03.979Z,20.32
2017-04-08T01:39:14.246Z,20.32
2017-04-08T01:40:24.567Z,20.3
2017-04-08T01:41:34.837Z,20.29
2017-04-08T01:42:45.353Z,20.39
2017-04-08T01:43:55.317Z,20.42
2017-04-08T01:45:05.283Z,20.29
2017-04-08T01:46:15.259Z,20.34
2017-04-08T01:47:24.920Z,20.39
2017-04-08T01:48:35.444Z,20.3
2017-04-08T01:49:45.713Z,20.3
2017-04-08T01:50:55.999Z,20.39
2017-04-08T01:52:05.956Z,20.3
2017-04-08T01:53:15.927Z,20.32
2017-04-08T01:54:26.485Z,20.32
2017-04-08T01:55:36.767Z,20.32
2017-04-08T01:56:47.045Z,20.34
2017-04-08T01:57:57.001Z,20.33
2017-04-08T01:59:07.282Z,20.39
2017-04-08T02:00:17.798Z,20.32
2017-04-08T02:01:27.764Z,20.29
2017-04-08T02:02:37.724Z,20.33
2017-04-08T02:03:48.000Z,20.33
2017-04-08T02:04:58.270Z,20.3
2017-04-08T02:06:08.491Z,20.34
2017-04-08T02:07:18.771Z,20.32
2017-04-08T02:08:28.732Z,20.34
2017-04-08T02:09:38.694Z,20.3
2017-04-08T02:10:48.967Z,20.29
2017-04-08T02:11:59.182Z,20.36
2017-04-08T02:13:09.472Z,20.32
2017-04-08T02:14:19.125Z,20.3
2017-04-08T02:15:29.387Z,20.39
2017-04-08T02:16:39.654Z,20.46
2017-04-08T02:17:49.570Z,20.3
2017-04-08T02:18:59.841Z,20.29
2017-04-08T02:20:10.115Z,20.33
2017-04-08T02:21:20.395Z,20.3
2017-04-08T02:22:30.671Z,20.3
2017-04-08T02:23:41.243Z,20.32
2017-04-08T02:24:51.513Z,20.3
2017-04-08T02:26:01.478Z,20.37
2017-04-08T02:27:11.767Z,20.3
2017-04-08T02:28:21.731Z,20.32
2017-04-08T02:29:32.309Z,20.32
2017-04-08T02:30:42.272Z,20.37
2017-04-08T02:31:52.227Z,20.39
2017-04-08T02:33:01.868Z,20.36
2017-04-08T02:34:12.146Z,20.29
2017-04-08T02:35:22.669Z,20.36
2017-04-08T02:36:32.937Z,20.34
2017-04-08T02:37:43.218Z,20.33
2017-04-08T02:38:53.486Z,20.3
2017-04-08T02:40:03.758Z,20.36
2017-04-08T02:41:14.330Z,20.36
2017-04-08T02:42:24.606Z,20.34
2017-04-08T02:43:34.866Z,20.33
2017-04-08T02:44:44.823Z,20.34
2017-04-08T02:45:54.777Z,20.34
2017-04-08T02:47:04.987Z,20.32
2017-04-08T02:48:14.946Z,20.34
2017-04-08T02:49:25.223Z,20.33
2017-04-08T02:50:35.509Z,20.34
2017-04-08T02:51:45.770Z,20.34
2017-04-08T02:52:56.017Z,20.3
2017-04-08T02:54:05.983Z,20.32
2017-04-08T02:55:15.946Z,20.34
2017-04-08T02:56:26.258Z,20.37
2017-04-08T02:57:36.531Z,20.37
2017-04-08T02:58:47.503Z,20.33
2017-04-08T02:59:57.456Z,20.32
2017-04-08T03:01:07.736Z,20.34
2017-04-08T03:02:17.686Z,20.34
2017-04-08T03:03:27.961Z,20.36
2017-04-08T03:04:38.530Z,20.34
2017-04-08T03:05:48.806Z,20.32
2017-04-08T03:06:59.133Z,20.33
2017-04-08T03:08:09.087Z,20.34
2017-04-08T03:09:19.355Z,20.34
2017-04-08T03:10:29.663Z,20.32
2017-04-08T03:11:39.615Z,20.37
2017-04-08T03:12:49.878Z,20.33
2017-04-08T03:14:00.185Z,20.34
2017-04-08T03:15:10.456Z,20.29
2017-04-08T03:16:20.992Z,20.34
2017-04-08T03:17:30.953Z,20.27
2017-04-08T03:18:40.918Z,20.33
2017-04-08T03:19:51.200Z,20.24
2017-04-08T03:21:00.901Z,20.32
2017-04-08T03:22:11.483Z,20.3
2017-04-08T03:23:21.448Z,20.32
2017-04-08T03:24:31.415Z,20.34
2017-04-08T03:25:41.378Z,20.21
2017-04-08T03:26:51.360Z,20.29
2017-04-08T03:28:01.882Z,20.22
2017-04-08T03:29:12.148Z,20.21
2017-04-08T03:30:22.446Z,20.19
2017-04-08T03:31:32.714Z,20.22
2017-04-08T03:32:42.978Z,20.26
2017-04-08T03:33:53.550Z,20.22
2017-04-08T03:35:03.828Z,20.33
2017-04-08T03:36:14.097Z,20.3
2017-04-08T03:37:24.373Z,20.33
2017-04-08T03:38:34.651Z,20.21
2017-04-08T03:39:45.222Z,20.34
2017-04-08T03:40:55.792Z,20.19
2017-04-08T03:42:06.069Z,20.21
2017-04-08T03:43:16.340Z,20.27
2017-04-08T03:44:26.603Z,20.3
2017-04-08T03:45:37.118Z,20.33
2017-04-08T03:46:47.085Z,20.22
2017-04-08T03:47:57.354Z,20.19
2017-04-08T03:49:07.320Z,20.32
2017-04-08T03:50:17.594Z,20.26
2017-04-08T03:51:27.812Z,20.33
2017-04-08T03:52:38.082Z,20.3
2017-04-08T03:53:48.051Z,20.32
2017-04-08T03:54:58.336Z,20.27
2017-04-08T03:56:08.002Z,20.19
2017-04-08T03:57:18.522Z,20.27
2017-04-08T03:58:28.790Z,20.3
2017-04-08T03:59:39.066Z,20.19
2017-04-08T04:00:49.013Z,20.36
2017-04-08T04:01:58.984Z,20.19
2017-04-08T04:03:09.560Z,20.34
2017-04-08T04:04:19.848Z,20.27
2017-04-08T04:05:30.121Z,20.26
2017-04-08T04:06:40.389Z,20.33
2017-04-08T04:07:50.672Z,20.22
2017-04-08T04:09:01.202Z,20.34
2017-04-08T04:10:11.484Z,20.32
2017-04-08T04:11:21.752Z,20.34
2017-04-08T04:12:32.028Z,20.32
2017-04-08T04:13:41.717Z,20.32
2017-04-08T04:14:51.929Z,20.33
2017-04-08T04:16:02.193Z,20.37
2017-04-08T04:17:12.471Z,20.32
2017-04-08T04:18:22.734Z,20.32
2017-04-08T04:19:32.725Z,20.32
2017-04-08T04:20:42.988Z,20.34
2017-04-08T04:21:52.940Z,20.34
2017-04-08T04:23:03.216Z,20.44
2017-04-08T04:24:13.193Z,20.39
2017-04-08T04:25:23.469Z,20.29
2017-04-08T04:26:33.998Z,20.3
2017-04-08T04:27:44.277Z,20.33
2017-04-08T04:28:54.556Z,20.34
2017-04-08T04:30:04.835Z,20.32
2017-04-08T04:31:15.112Z,20.32
2017-04-08T04:32:25.643Z,20.37
2017-04-08T04:33:35.909Z,20.27
2017-04-08T04:34:46.185Z,20.33
2017-04-08T04:35:56.148Z,20.27
2017-04-08T04:37:06.427Z,20.37
2017-04-08T04:38:17.000Z,20.33
2017-04-08T04:39:27.261Z,20.27
2017-04-08T04:40:37.545Z,20.36
2017-04-08T04:41:47.812Z,20.32
2017-04-08T04:42:58.078Z,20.32
2017-04-08T04:44:08.611Z,20.32
2017-04-08T04:45:18.887Z,20.32
2017-04-08T04:46:28.849Z,20.32
2017-04-08T04:47:39.109Z,20.34
2017-04-08T04:48:49.382Z,20.29
2017-04-08T04:49:59.912Z,20.27
2017-04-08T04:51:10.190Z,20.36
2017-04-08T04:52:20.459Z,20.33
2017-04-08T04:53:30.731Z,20.32
2017-04-08T04:54:41.007Z,20.36
2017-04-08T04:55:51.225Z,20.34
2017-04-08T04:57:01.509Z,20.32
2017-04-08T04:58:11.787Z,20.27
2017-04-08T04:59:22.067Z,20.3
2017-04-08T05:00:32.047Z,20.33
2017-04-08T05:01:42.633Z,20.36
2017-04-08T05:02:52.915Z,20.33
2017-04-08T05:04:02.890Z,20.37
2017-04-08T05:05:12.856Z,20.29
2017-04-08T05:06:23.139Z,20.32
2017-04-08T05:07:33.651Z,20.32
2017-04-08T05:08:43.628Z,20.36
2017-04-08T05:09:53.900Z,20.33
2017-04-08T05:11:04.173Z,20.36
2017-04-08T05:12:14.444Z,20.34
2017-04-08T05:13:24.975Z,20.32
2017-04-08T05:14:35.246Z,20.33
2017-04-08T05:15:45.517Z,20.34
2017-04-08T05:16:55.794Z,20.3
2017-04-08T05:18:06.063Z,20.29
2017-04-08T05:19:16.585Z,20.32
2017-04-08T05:20:26.862Z,20.32
2017-04-08T05:21:37.138Z,20.34
2017-04-08T05:22:47.428Z,20.33
2017-04-08T05:23:57.395Z,20.33
2017-04-08T05:25:07.925Z,20.36
2017-04-08T05:26:17.558Z,20.3
2017-04-08T05:27:27.633Z,20.34
2017-04-08T05:28:37.625Z,20.3
2017-04-08T05:29:47.902Z,20.3
2017-04-08T05:30:58.170Z,20.32
2017-04-08T05:32:08.457Z,20.34
2017-04-08T05:33:18.125Z,20.34
2017-04-08T05:34:27.770Z,20.32
2017-04-08T05:35:38.044Z,20.34
2017-04-08T05:36:48.605Z,20.26
2017-04-08T05:37:58.893Z,20.29
2017-04-08T05:39:08.862Z,20.27
2017-04-08T05:40:19.144Z,20.32
2017-04-08T05:41:29.109Z,20.34
2017-04-08T05:42:39.645Z,20.33
2017-04-08T05:43:49.617Z,20.33
2017-04-08T05:44:59.888Z,20.36
2017-04-08T05:46:10.164Z,20.32
2017-04-08T05:47:20.440Z,20.32
2017-04-08T05:48:30.973Z,20.42
2017-04-08T05:49:40.334Z,20.29
2017-04-08T05:50:50.619Z,20.3
2017-04-08T05:52:00.587Z,20.34
2017-04-08T05:53:10.573Z,20.27
2017-04-08T05:54:21.101Z,20.27
2017-04-08T05:55:31.063Z,20.33
2017-04-08T05:56:41.029Z,20.27
2017-04-08T05:57:50.989Z,20.29
2017-04-08T05:59:01.273Z,20.29
2017-04-08T06:00:11.796Z,20.39
2017-04-08T06:01:22.069Z,20.29
2017-04-08T06:02:32.351Z,20.46
2017-04-08T06:03:42.619Z,20.42
2017-04-08T06:04:52.580Z,20.3
2017-04-08T06:06:02.839Z,20.46
2017-04-08T06:07:12.815Z,20.49
2017-04-08T06:08:22.467Z,20.27
2017-04-08T06:09:32.748Z,20.44
2017-04-08T06:10:43.046Z,20.32
2017-04-08T06:11:53.264Z,20.32
2017-04-08T06:13:03.239Z,20.32
2017-04-08T06:14:13.518Z,20.32
2017-04-08T06:15:23.496Z,20.39
2017-04-08T06:16:33.461Z,20.4
2017-04-08T06:17:44.044Z,20.33
2017-04-08T06:18:54.359Z,20.44
2017-04-08T06:20:04.646Z,20.46
2017-04-08T06:21:14.605Z,20.4
2017-04-08T06:22:24.889Z,20.44
2017-04-08T06:23:35.428Z,20.32
2017-04-08T06:24:45.400Z,20.44
2017-04-08T06:25:55.675Z,20.4
2017-04-08T06:27:05.954Z,20.44
2017-04-08T06:28:15.295Z,20.39
2017-04-08T06:29:25.500Z,20.42
2017-04-08T06:30:35.787Z,20.44
2017-04-08T06:31:46.108Z,20.39
2017-04-08T06:32:56.075Z,20.44
2017-04-08T06:34:06.355Z,20.42
2017-04-08T06:35:16.887Z,20.39
2017-04-08T06:36:27.153Z,20.46
2017-04-08T06:37:37.458Z,20.4
2017-04-08T06:38:47.417Z,20.4
2017-04-08T06:39:57.701Z,20.48
2017-04-08T06:41:07.917Z,20.42
2017-04-08T06:42:18.208Z,20.39
2017-04-08T06:43:28.181Z,20.46
2017-04-08T06:44:38.469Z,20.39
2017-04-08T06:45:48.749Z,20.42
2017-04-08T06:46:58.970Z,20.48
2017-04-08T06:48:08.938Z,20.44
2017-04-08T06:49:19.208Z,20.39
2017-04-08T06:50:29.484Z,20.46
2017-04-08T06:51:39.759Z,20.46
2017-04-08T06:52:49.961Z,20.44
2017-04-08T06:53:59.624Z,20.53
2017-04-08T06:55:09.928Z,20.42
2017-04-08T06:56:20.217Z,20.49
2017-04-08T06:57:30.500Z,20.5
2017-04-08T06:58:40.729Z,20.42
2017-04-08T06:59:51.004Z,20.52
2017-04-08T07:01:01.296Z,20.52
2017-04-08T07:02:11.567Z,20.58
2017-04-08T07:03:21.860Z,20.48
2017-04-08T07:04:32.381Z,20.42
2017-04-08T07:05:42.340Z,20.48
2017-04-08T07:06:52.306Z,20.56
2017-04-08T07:08:02.586Z,20.44
2017-04-08T07:09:12.557Z,20.49
2017-04-08T07:10:22.780Z,20.56
2017-04-08T07:11:33.067Z,20.55
2017-04-08T07:12:43.342Z,20.49
2017-04-08T07:13:53.639Z,20.49
2017-04-08T07:15:03.602Z,20.52
2017-04-08T07:16:14.183Z,20.53
2017-04-08T07:17:24.457Z,20.39
2017-04-08T07:18:34.941Z,20.53
2017-04-08T07:19:44.908Z,20.48
2017-04-08T07:20:54.865Z,20.49
2017-04-08T07:22:04.773Z,20.48
2017-04-08T07:23:15.060Z,20.44
2017-04-08T07:24:25.349Z,20.52
2017-04-08T07:25:35.622Z,20.52
2017-04-08T07:26:45.595Z,20.4
2017-04-08T07:27:56.173Z,20.52
2017-04-08T07:29:06.454Z,20.5
2017-04-08T07:30:16.418Z,20.46
2017-04-08T07:31:26.386Z,20.44
2017-04-08T07:32:36.668Z,20.52
2017-04-08T07:33:47.195Z,20.46
2017-04-08T07:34:56.852Z,20.53
2017-04-08T07:36:06.810Z,20.5
2017-04-08T07:37:17.085Z,20.52
2017-04-08T07:38:27.368Z,20.49
2017-04-08T07:39:37.970Z,20.52
2017-04-08T07:40:47.934Z,20.53
2017-04-08T07:41:58.226Z,20.58
2017-04-08T07:43:07.878Z,20.55
2017-04-08T07:44:18.151Z,20.52
2017-04-08T07:45:28.706Z,20.53
2017-04-08T07:46:38.973Z,20.52
2017-04-08T07:47:49.247Z,20.46
2017-04-08T07:48:59.534Z,20.5
2017-04-08T07:50:09.821Z,20.49
2017-04-08T07:51:20.101Z,20.55
2017-04-08T07:52:30.068Z,20.52
2017-04-08T07:53:40.364Z,20.55
2017-04-08T07:54:50.354Z,20.52
2017-04-08T07:56:00.627Z,20.56
2017-04-08T07:57:11.168Z,20.53
2017-04-08T07:58:21.451Z,20.58
2017-04-08T07:59:31.722Z,20.55
2017-04-08T08:00:42.203Z,20.55
2017-04-08T08:01:52.185Z,20.56
2017-04-08T08:03:02.415Z,20.55
2017-04-08T08:04:12.382Z,20.5
2017-04-08T08:05:22.050Z,20.55
2017-04-08T08:06:32.027Z,20.56
2017-04-08T08:07:42.015Z,20.6
2017-04-08T08:08:52.289Z,20.58
2017-04-08T08:10:02.596Z,20.56
2017-04-08T08:11:12.871Z,20.63
2017-04-08T08:12:22.865Z,20.64
2017-04-08T08:13:32.892Z,20.56
2017-04-08T08:14:43.419Z,20.58
2017-04-08T08:15:53.380Z,20.58
2017-04-08T08:17:03.658Z,20.6
2017-04-08T08:18:13.625Z,20.59
2017-04-08T08:19:23.906Z,20.64
2017-04-08T08:20:34.116Z,20.56
2017-04-08T08:21:44.397Z,20.66
2017-04-08T08:22:54.362Z,20.67
2017-04-08T08:24:04.658Z,20.64
2017-04-08T08:25:14.320Z,20.59
2017-04-08T08:26:24.535Z,20.63
2017-04-08T08:27:34.813Z,20.64
2017-04-08T08:28:45.091Z,20.64
2017-04-08T08:29:55.400Z,20.67
2017-04-08T08:31:05.681Z,20.67
2017-04-08T08:32:15.906Z,20.66
2017-04-08T08:33:26.197Z,20.68
2017-04-08T08:34:36.474Z,20.66
2017-04-08T08:35:46.947Z,20.68
2017-04-08T08:36:57.240Z,20.67
2017-04-08T08:38:07.823Z,20.68
2017-04-08T08:39:17.810Z,20.68
2017-04-08T08:40:28.088Z,20.68
2017-04-08T08:41:38.372Z,20.7
2017-04-08T08:42:48.743Z,20.68
2017-04-08T08:43:59.270Z,20.66
2017-04-08T08:45:09.541Z,20.73
2017-04-08T08:46:19.531Z,20.73
2017-04-08T08:47:29.816Z,20.71
2017-04-08T08:48:40.100Z,20.7
2017-04-08T08:49:50.646Z,20.74
2017-04-08T08:51:00.930Z,20.68
2017-04-08T08:52:10.626Z,20.73
2017-04-08T08:53:20.899Z,20.63
2017-04-08T08:54:31.189Z,20.74
2017-04-08T08:55:41.470Z,20.7
2017-04-08T08:56:51.135Z,20.7
2017-04-08T08:58:01.116Z,20.73
2017-04-08T08:59:11.391Z,20.67
2017-04-08T09:00:21.691Z,20.7
2017-04-08T09:01:32.230Z,20.74
2017-04-08T09:02:42.519Z,20.74
2017-04-08T09:03:52.819Z,20.74
2017-04-08T09:05:03.122Z,20.75
2017-04-08T09:06:13.095Z,20.8
2017-04-08T09:07:22.704Z,20.77
2017-04-08T09:08:33.017Z,20.75
2017-04-08T09:09:43.304Z,20.73
2017-04-08T09:10:53.274Z,20.74
2017-04-08T09:12:03.568Z,20.82
2017-04-08T09:13:14.088Z,20.77
2017-04-08T09:14:24.064Z,20.77
2017-04-08T09:15:34.358Z,20.73
2017-04-08T09:16:44.357Z,20.78
2017-04-08T09:17:54.335Z,20.75
2017-04-08T09:19:04.578Z,20.75
2017-04-08T09:20:14.887Z,20.77
2017-04-08T09:21:25.191Z,20.74
2017-04-08T09:22:35.482Z,20.77
2017-04-08T09:23:45.776Z,20.73
2017-04-08T09:24:56.047Z,20.75
2017-04-08T09:26:06.023Z,20.75
2017-04-08T09:27:15.999Z,20.77
2017-04-08T09:28:26.294Z,20.77
2017-04-08T09:29:36.584Z,20.74
2017-04-08T09:30:47.135Z,20.75
2017-04-08T09:31:57.430Z,20.71
2017-04-08T09:33:07.413Z,20.71
2017-04-08T09:34:17.393Z,20.78
2017-04-08T09:35:27.689Z,20.82
2017-04-08T09:36:37.933Z,20.78
2017-04-08T09:37:47.923Z,20.82
2017-04-08T09:38:57.906Z,20.78
2017-04-08T09:40:07.889Z,20.83
2017-04-08T09:41:17.553Z,20.82
2017-04-08T09:42:27.821Z,20.71
2017-04-08T09:43:37.792Z,20.74
2017-04-08T09:44:47.766Z,20.83
2017-04-08T09:45:58.047Z,20.75
2017-04-08T09:47:08.328Z,20.78
2017-04-08T09:48:18.865Z,20.77
2017-04-08T09:49:29.161Z,20.74
2017-04-08T09:50:39.447Z,20.74
2017-04-08T09:51:49.755Z,20.77
2017-04-08T09:53:00.046Z,20.8
2017-04-08T09:54:10.291Z,20.85
2017-04-08T09:55:20.593Z,20.78
2017-04-08T09:56:30.879Z,20.82
2017-04-08T09:57:40.875Z,20.74
2017-04-08T09:58:51.167Z,20.85
2017-04-08T10:00:01.409Z,20.78
2017-04-08T10:01:11.395Z,20.83
2017-04-08T10:02:21.691Z,20.77
2017-04-08T10:03:31.998Z,20.88
2017-04-08T10:04:42.283Z,20.77
2017-04-08T10:05:52.498Z,20.83
2017-04-08T10:07:02.786Z,20.78
2017-04-08T10:08:13.070Z,20.8
2017-04-08T10:09:23.363Z,20.75
2017-04-08T10:10:33.038Z,20.82
2017-04-08T10:11:43.268Z,20.78
2017-04-08T10:12:53.554Z,20.86
2017-04-08T10:14:03.855Z,20.85
2017-04-08T10:15:13.567Z,20.92
2017-04-08T10:16:23.853Z,20.85
2017-04-08T10:17:34.406Z,20.85
2017-04-08T10:18:44.692Z,20.86
2017-04-08T10:19:54.983Z,20.92
2017-04-08T10:21:05.277Z,20.9
2017-04-08T10:22:15.575Z,20.88
2017-04-08T10:23:25.556Z,20.9
2017-04-08T10:24:35.847Z,20.93
2017-04-08T10:25:46.136Z,20.92
2017-04-08T10:26:56.445Z,20.95
2017-04-08T10:28:06.746Z,20.9
2017-04-08T10:29:17.286Z,20.89
2017-04-08T10:30:27.590Z,20.9
2017-04-08T10:31:37.559Z,20.88
2017-04-08T10:32:47.863Z,20.89
2017-04-08T10:33:57.840Z,20.86
2017-04-08T10:35:08.425Z,20.89
2017-04-08T10:36:18.710Z,20.82
2017-04-08T10:37:29.004Z,20.86
2017-04-08T10:38:39.293Z,20.92
2017-04-08T10:39:49.595Z,20.93
2017-04-08T10:41:00.127Z,20.86
2017-04-08T10:42:10.414Z,20.92
2017-04-08T10:43:20.690Z,20.92
2017-04-08T10:44:30.365Z,20.9
2017-04-08T10:45:40.656Z,20.88
2017-04-08T10:46:51.291Z,20.93
2017-04-08T10:48:01.603Z,20.98
2017-04-08T10:49:11.894Z,21.01
2017-04-08T10:50:22.200Z,20.89
2017-04-08T10:51:32.489Z,20.93
2017-04-08T10:52:43.070Z,20.96
2017-04-08T10:53:53.379Z,21
2017-04-08T10:55:03.431Z,20.9
2017-04-08T10:56:13.732Z,20.92
2017-04-08T10:57:24.015Z,20.98
2017-04-08T10:58:34.575Z,20.98
2017-04-08T10:59:44.547Z,20.88
2017-04-08T11:00:54.838Z,20.89
2017-04-08T11:02:05.120Z,20.9
2017-04-08T11:03:15.448Z,20.9
2017-04-08T11:04:25.701Z,20.9
2017-04-08T11:05:35.994Z,21.03
2017-04-08T11:06:46.285Z,21.04
2017-04-08T11:07:56.595Z,21.05
2017-04-08T11:09:06.618Z,20.92
2017-04-08T11:10:17.154Z,21.04
2017-04-08T11:11:26.506Z,21.03
2017-04-08T11:12:36.801Z,20.96
2017-04-08T11:13:47.097Z,20.95
2017-04-08T11:14:56.775Z,21.03
2017-04-08T11:16:07.362Z,21.04
2017-04-08T11:17:17.361Z,21.08
2017-04-08T11:18:27.682Z,21.04
2017-04-08T11:19:37.969Z,21.05
2017-04-08T11:20:47.633Z,21.03
2017-04-08T11:21:58.212Z,20.96
2017-04-08T11:23:08.519Z,20.96
2017-04-08T11:24:18.803Z,20.98
2017-04-08T11:25:29.093Z,21.01
2017-04-08T11:26:39.073Z,21.05
2017-04-08T11:27:49.651Z,21.01
2017-04-08T11:28:59.953Z,21.11
2017-04-08T11:30:10.246Z,21.03
2017-04-08T11:31:20.554Z,21.04
2017-04-08T11:32:30.527Z,21.04
2017-04-08T11:33:40.769Z,21.07
2017-04-08T11:34:50.746Z,21.07
2017-04-08T11:36:00.436Z,21.01
2017-04-08T11:37:10.742Z,21.07
2017-04-08T11:38:20.431Z,20.98
2017-04-08T11:39:30.718Z,21.07
2017-04-08T11:40:40.707Z,21.13
2017-04-08T11:41:51.003Z,21.11
2017-04-08T11:43:01.305Z,21.07
2017-04-08T11:44:11.279Z,21.01
2017-04-08T11:45:21.877Z,21.13
2017-04-08T11:46:32.188Z,21.05
2017-04-08T11:47:41.851Z,21.15
2017-04-08T11:48:52.148Z,21.1
2017-04-08T11:50:02.426Z,21.07
2017-04-08T11:51:13.028Z,21.04
2017-04-08T11:52:23.311Z,21.11
2017-04-08T11:53:33.595Z,21.03
2017-04-08T11:54:43.269Z,21.11
2017-04-08T11:55:53.255Z,21.11
2017-04-08T11:57:03.479Z,21.11
2017-04-08T11:58:13.797Z,21.07
2017-04-08T11:59:23.786Z,21.14
2017-04-08T12:00:33.756Z,21.17
2017-04-08T12:01:43.728Z,21.15
2017-04-08T12:02:54.282Z,21.14
2017-04-08T12:04:04.247Z,21.1
2017-04-08T12:05:13.904Z,21.14
2017-04-08T12:06:24.236Z,21.14
2017-04-08T12:07:34.516Z,21.11
2017-04-08T12:08:45.072Z,21.11
2017-04-08T12:09:55.377Z,21.11
2017-04-08T12:11:05.400Z,21.13
2017-04-08T12:12:15.692Z,21.11
2017-04-08T12:13:25.970Z,21.13
2017-04-08T12:14:36.521Z,21.14
2017-04-08T12:15:46.822Z,21.13
2017-04-08T12:16:57.118Z,21.14
2017-04-08T12:18:07.417Z,21.14
2017-04-08T12:19:17.702Z,21.14
2017-04-08T12:20:28.298Z,21.1
2017-04-08T12:21:37.970Z,21.15
2017-04-08T12:22:47.643Z,21.15
2017-04-08T12:23:57.918Z,21.1
2017-04-08T12:25:08.212Z,21.14
2017-04-08T12:26:18.438Z,21.14
2017-04-08T12:27:28.736Z,21.11
2017-04-08T12:28:38.718Z,21.14
2017-04-08T12:29:49.034Z,21.14
2017-04-08T12:30:58.702Z,21.15
2017-04-08T12:32:09.236Z,21.08
2017-04-08T12:33:19.555Z,21.13
2017-04-08T12:34:29.859Z,21.14
2017-04-08T12:35:40.160Z,21.17
2017-04-08T12:36:50.454Z,21.13
2017-04-08T12:38:01.046Z,21.19
2017-04-08T12:39:10.724Z,21.1
2017-04-08T12:40:20.996Z,21.1
2017-04-08T12:41:31.285Z,21.1
2017-04-08T12:42:41.565Z,21.14
2017-04-08T12:43:51.782Z,21.15
2017-04-08T12:45:01.754Z,21.14
2017-04-08T12:46:11.716Z,21.13
2017-04-08T12:47:21.396Z,21.1
2017-04-08T12:48:31.682Z,21.13
2017-04-08T12:49:42.270Z,21.14
2017-04-08T12:50:52.250Z,21.11
2017-04-08T12:52:02.539Z,21.15
2017-04-08T12:53:12.615Z,21.1
2017-04-08T12:54:22.907Z,21.2
2017-04-08T12:55:33.506Z,21.19
2017-04-08T12:56:43.800Z,21.14
2017-04-08T12:57:53.789Z,21.14
2017-04-08T12:59:04.073Z,21.13
2017-04-08T13:00:14.362Z,21.15
2017-04-08T13:01:24.632Z,21.1
2017-04-08T13:02:34.612Z,21.14
2017-04-08T13:03:44.915Z,21.19
2017-04-08T13:04:54.898Z,21.15
2017-04-08T13:06:05.177Z,21.15
2017-04-08T13:07:15.706Z,21.14
2017-04-08T13:08:26.014Z,21.13
2017-04-08T13:09:35.979Z,21.17
2017-04-08T13:10:46.266Z,21.11
2017-04-08T13:11:56.562Z,21.03
2017-04-08T13:13:06.790Z,21.11
2017-04-08T13:14:17.167Z,21.14
2017-04-08T13:15:27.467Z,21.13
2017-04-08T13:16:37.751Z,21.11
2017-04-08T13:17:47.419Z,21.1
2017-04-08T13:18:57.656Z,21.05
2017-04-08T13:20:07.931Z,21.11
2017-04-08T13:21:17.903Z,21.11
2017-04-08T13:22:28.197Z,21.13
2017-04-08T13:23:38.494Z,21.04
2017-04-08T13:24:49.039Z,21.13
2017-04-08T13:25:59.334Z,21.08
2017-04-08T13:27:09.299Z,21.01
2017-04-08T13:28:19.597Z,21.11
2017-04-08T13:29:29.596Z,21.01
2017-04-08T13:30:40.130Z,21.1
2017-04-08T13:31:50.403Z,21.04
2017-04-08T13:33:00.681Z,21.07
2017-04-08T13:34:10.972Z,21.08
2017-04-08T13:35:21.273Z,21.07
2017-04-08T13:36:31.799Z,21.15
2017-04-08T13:37:42.086Z,21.05
2017-04-08T13:38:52.372Z,21
2017-04-08T13:40:02.652Z,21.07
2017-04-08T13:41:12.940Z,21.03
2017-04-08T13:42:23.523Z,21.08
2017-04-08T13:43:33.801Z,21.11
2017-04-08T13:44:44.091Z,21.08
2017-04-08T13:45:54.413Z,21.05
2017-04-08T13:47:04.716Z,21.07
2017-04-08T13:48:14.679Z,21.03
2017-04-08T13:49:24.980Z,21.04
2017-04-08T13:50:34.947Z,21.03
2017-04-08T13:51:45.234Z,21.04
2017-04-08T13:52:55.199Z,21.03
2017-04-08T13:54:05.798Z,21.13
2017-04-08T13:55:15.463Z,21.13
2017-04-08T13:56:25.776Z,21.04
2017-04-08T13:57:35.753Z,21.04
2017-04-08T13:58:46.102Z,20.98
2017-04-08T13:59:56.674Z,21.05
2017-04-08T14:01:06.970Z,21.03
2017-04-08T14:02:17.277Z,21.01
2017-04-08T14:03:27.003Z,21.1
2017-04-08T14:04:37.322Z,21
2017-04-08T14:05:47.936Z,21.03
2017-04-08T14:06:57.948Z,21.01
2017-04-08T14:08:07.623Z,21.01
2017-04-08T14:09:17.955Z,21.03
2017-04-08T14:10:28.265Z,21.01
2017-04-08T14:11:38.511Z,21.03
2017-04-08T14:12:48.525Z,21
2017-04-08T14:13:58.813Z,20.98
2017-04-08T14:15:08.819Z,20.95
2017-04-08T14:16:19.113Z,20.96
2017-04-08T14:17:29.713Z,21
2017-04-08T14:18:39.709Z,20.95
2017-04-08T14:19:49.730Z,21.03
2017-04-08T14:20:59.731Z,21
2017-04-08T14:22:09.459Z,20.96
2017-04-08T14:23:20.082Z,20.92
2017-04-08T14:24:30.108Z,20.98
2017-04-08T14:25:40.403Z,20.88
2017-04-08T14:26:50.698Z,20.92
2017-04-08T14:28:00.998Z,20.95
2017-04-08T14:29:11.248Z,21.01
2017-04-08T14:30:21.573Z,21.04
2017-04-08T14:31:31.564Z,20.93
2017-04-08T14:32:41.907Z,20.92
2017-04-08T14:33:52.197Z,21.01
2017-04-08T14:35:02.837Z,20.93
2017-04-08T14:36:12.840Z,20.88
2017-04-08T14:37:23.148Z,20.92
2017-04-08T14:38:33.435Z,21.03
2017-04-08T14:39:43.735Z,21.04
2017-04-08T14:40:54.331Z,20.92
2017-04-08T14:42:04.637Z,20.9
2017-04-08T14:43:14.966Z,20.86
2017-04-08T14:44:25.291Z,20.95
2017-04-08T14:45:35.936Z,21.03
2017-04-08T14:46:46.158Z,20.98
2017-04-08T14:47:56.468Z,20.96
2017-04-08T14:49:06.473Z,20.9
2017-04-08T14:50:16.784Z,21
2017-04-08T14:51:26.765Z,20.96
2017-04-08T14:52:37.313Z,20.96
2017-04-08T14:53:47.311Z,20.96
2017-04-08T14:54:57.771Z,21.01
2017-04-08T14:56:08.079Z,20.89
2017-04-08T14:57:18.371Z,20.9
2017-04-08T14:58:28.931Z,20.93
2017-04-08T14:59:38.940Z,20.93
2017-04-08T15:00:48.930Z,20.89
2017-04-08T15:01:58.907Z,20.92
2017-04-08T15:03:08.582Z,20.92
2017-04-08T15:04:18.872Z,21.01
2017-04-08T15:05:28.877Z,20.92
2017-04-08T15:06:38.884Z,20.95
2017-04-08T15:07:49.183Z,20.89
2017-04-08T15:08:59.191Z,20.95